Harbor Emperor — WCY6430 — position and weather

sailwx.info

Track history (hours):
 
Tides and Currents Weather Stations Pressure Air Temp Water Temp Dewpoint Dewpoint Depression Visibility Wind Speed Wind Dir Waves Ship Positions

Harbor Emperor

Owner: BLUE & GOLD FLEET, SAN FRANCISCO, CA. More information available from US FCC via Universal Licensing System and Coast Guard Vessel Documentation Center.

Last reported at 2015-May-05 00:33 UTC. Time now 2015-May-05 01:10 UTC.
Position N 37°48' W 122°24'.

Length 27 m.

Type: Passenger vessel. MMSI: 366985270.

Date/timePositionNaut miles runAvg speedWind from/ knotsBaromVisibWave heightAir tempDewpointWater temp
2015-May-05 00:33N 37°48' W 122°24'0 0.0
2015-May-04 23:33N 37°48' W 122°24'0 0.0
2015-May-04 22:33N 37°48' W 122°24'0 0.0
2015-May-04 21:33N 37°48' W 122°24'0 0.0
2015-May-04 20:32N 37°48' W 122°24'0 0.0
2015-May-04 19:33N 37°48' W 122°24'0 0.0
2015-May-04 18:33N 37°48' W 122°24'0 0.0
2015-May-04 17:33N 37°48' W 122°24'0 0.0
2015-May-04 16:33N 37°48' W 122°24'0 0.0
2015-May-04 15:33N 37°48' W 122°24'0 0.0
2015-May-04 14:33N 37°48' W 122°24'0 0.0
2015-May-04 13:33N 37°48' W 122°24'1 0.8
2015-May-04 12:29N 37°49' W 122°25'0 0.0
2015-May-04 11:33N 37°49' W 122°25'0 0.0
2015-May-04 10:30N 37°49' W 122°25'0 0.0
2015-May-04 09:33N 37°49' W 122°25'0 0.0
2015-May-04 08:33N 37°49' W 122°25'0 0.0
2015-May-04 07:27N 37°49' W 122°25'0 0.0
2015-May-04 06:33N 37°49' W 122°25'0 0.0
2015-May-04 05:33N 37°49' W 122°25'0 0.0
2015-May-04 04:33N 37°49' W 122°25'0 0.0
2015-May-04 03:27N 37°49' W 122°25'0 0.0
2015-May-04 02:33N 37°49' W 122°25'0 0.0
2015-May-04 01:31N 37°49' W 122°25'0 0.0
2015-May-04 00:33N 37°49' W 122°25'0 0.0
2015-May-03 23:32N 37°49' W 122°25'0 0.0
2015-May-03 22:33N 37°49' W 122°25'0 0.0
2015-May-03 21:33N 37°49' W 122°25'0 0.0
2015-May-03 20:33N 37°49' W 122°25'3 2.6
2015-May-03 19:33N 37°51' W 122°25'3 0.1
2015-May-03 01:33N 37°49' W 122°25'0 0.0
2015-May-03 00:29N 37°49' W 122°25'4 3.5
2015-May-02 23:24N 37°52' W 122°26'2 2.1
2015-May-02 22:33N 37°50' W 122°26'0 0.4
2015-May-02 21:33N 37°50' W 122°26'2 1.8
2015-May-02 20:33N 37°49' W 122°25'4 4.4
2015-May-02 19:34N 37°52' W 122°27'4 4.2
2015-May-02 18:33N 37°49' W 122°25'4 4.2
2015-May-02 17:33N 37°52' W 122°27'4 4.3
2015-May-02 16:33N 37°49' W 122°25'0 0.1
2015-May-02 15:26N 37°49' W 122°25'0 0.0
2015-May-02 14:18N 37°49' W 122°25'0 0.0
2015-May-02 13:30N 37°49' W 122°25'0 0.0
2015-May-02 12:33N 37°49' W 122°25'0 0.0
2015-May-02 11:33N 37°49' W 122°25'0 0.0
2015-May-02 10:15N 37°49' W 122°25'0 0.0
2015-May-02 09:27N 37°49' W 122°25'0 0.0
2015-May-02 08:06N 37°49' W 122°25'0 0.0
2015-May-02 07:33N 37°49' W 122°25'0 0.0
2015-May-02 06:27N 37°49' W 122°25'0 0.0
2015-May-02 05:20N 37°49' W 122°25'0 0.0
2015-May-02 04:32N 37°49' W 122°25'2 2.4
2015-May-02 03:33N 37°50' W 122°27'2 2.0
2015-May-02 02:21N 37°49' W 122°25'3 3.7
2015-May-02 01:33N 37°51' W 122°27'1 1.2
2015-May-02 00:33N 37°51' W 122°29'4 3.9
2015-May-01 23:33N 37°49' W 122°25'4 3.6
2015-May-01 22:33N 37°51' W 122°28'3 3.4
2015-May-01 21:34N 37°49' W 122°25'1 0.6
2015-May-01 20:33N 37°49' W 122°25'3 3.0
2015-May-01 19:33N 37°51' W 122°28'1 0.5
2015-May-01 18:30N 37°51' W 122°28'2 1.5
2015-May-01 17:19N 37°52' W 122°26'4 4.6
2015-May-01 16:28N 37°49' W 122°25'0 0.0
2015-May-01 15:31N 37°49' W 122°25'0 0.0
2015-May-01 14:28N 37°49' W 122°25'0 0.0
2015-May-01 12:26N 37°49' W 122°25'0 0.0
2015-May-01 10:29N 37°49' W 122°25'0 0.0
2015-May-01 09:32N 37°49' W 122°25'0 0.0
2015-May-01 08:17N 37°49' W 122°25'0 0.0
2015-May-01 07:26N 37°49' W 122°25'0 0.0
2015-May-01 06:29N 37°49' W 122°25'0 0.0
2015-May-01 05:26N 37°49' W 122°25'2 1.3
2015-May-01 03:33N 37°50' W 122°27'2 2.4
2015-May-01 02:33N 37°49' W 122°25'3 2.8
2015-May-01 01:33N 37°50' W 122°27'1 1.3
2015-May-01 00:32N 37°51' W 122°29'4 4.2
2015-Apr-30 23:33N 37°49' W 122°25'4 3.6
2015-Apr-30 22:32N 37°51' W 122°28'3 3.2
2015-Apr-30 21:33N 37°49' W 122°25'1 0.6
2015-Apr-30 20:33N 37°49' W 122°25'3 3.1
2015-Apr-30 19:33N 37°51' W 122°28'1 1.0
2015-Apr-30 18:33N 37°51' W 122°29'4 4.2
2015-Apr-30 17:32N 37°49' W 122°25'0 0.0
2015-Apr-30 16:32N 37°49' W 122°25'0 0.0
2015-Apr-30 15:33N 37°49' W 122°25'0 0.0
2015-Apr-30 14:33N 37°49' W 122°25'0 0.0
2015-Apr-30 13:33N 37°49' W 122°25'0 0.0
2015-Apr-30 12:33N 37°49' W 122°25'0 0.0
2015-Apr-30 11:32N 37°49' W 122°25'0 0.0
2015-Apr-30 10:33N 37°49' W 122°25'0 0.0
2015-Apr-30 09:33N 37°49' W 122°25'0 0.0
2015-Apr-30 08:33N 37°49' W 122°25'0 0.0
2015-Apr-30 07:33N 37°49' W 122°25'0 0.0
2015-Apr-30 06:33N 37°49' W 122°25'0 0.0
2015-Apr-30 05:33N 37°49' W 122°25'0 0.0
2015-Apr-30 04:33N 37°49' W 122°25'0 0.0
2015-Apr-30 03:33N 37°49' W 122°25'0 0.0
2015-Apr-30 02:32N 37°49' W 122°25'0 0.0
2015-Apr-30 01:33N 37°49' W 122°25'0 0.1
2015-Apr-30 00:33N 37°49' W 122°25'1 1.0
2015-Apr-29 23:33N 37°50' W 122°25'1 0.8
2015-Apr-29 22:10N 37°49' W 122°25'2 3.6
2015-Apr-29 21:33N 37°49' W 122°27'2 2.3
2015-Apr-29 20:33N 37°49' W 122°25'3 2.6
2015-Apr-29 19:33N 37°49' W 122°28'3 2.8
2015-Apr-29 18:33N 37°49' W 122°24'0 0.5
2015-Apr-29 17:32N 37°49' W 122°25'0 0.0
2015-Apr-29 16:30N 37°49' W 122°25'0 0.0
2015-Apr-29 15:19N 37°49' W 122°25'0 0.0
2015-Apr-29 14:31N 37°49' W 122°25'0 0.0
2015-Apr-29 13:19N 37°49' W 122°25'0 0.0
2015-Apr-29 12:32N 37°49' W 122°25'0 0.0
2015-Apr-29 11:33N 37°49' W 122°25'0 0.0
2015-Apr-29 10:32N 37°49' W 122°25'0 0.0
2015-Apr-29 09:33N 37°49' W 122°25'0 0.0
2015-Apr-29 08:31N 37°49' W 122°25'0 0.0
2015-Apr-29 07:21N 37°49' W 122°25'0 0.0
2015-Apr-29 06:29N 37°49' W 122°25'0 0.0
2015-Apr-29 05:33N 37°49' W 122°25'0 0.0
2015-Apr-29 04:29N 37°49' W 122°25'0 0.0
2015-Apr-29 03:33N 37°49' W 122°25'0 0.0
2015-Apr-29 02:33N 37°49' W 122°25'0 0.0
2015-Apr-29 01:33N 37°49' W 122°25'0 0.1
2015-Apr-29 00:33N 37°49' W 122°25'1 1.1
2015-Apr-28 23:34N 37°50' W 122°25'1 1.2
2015-Apr-28 22:32N 37°49' W 122°25'3 2.7
2015-Apr-28 21:33N 37°49' W 122°28'3 2.6
2015-Apr-28 20:31N 37°49' W 122°25'3 2.7
2015-Apr-28 19:33N 37°49' W 122°28'3 2.6
2015-Apr-28 18:33N 37°49' W 122°25'1 0.6
2015-Apr-28 17:32N 37°49' W 122°25'2 2.2
2015-Apr-28 16:33N 37°50' W 122°26'3 3.3
2015-Apr-28 15:33N 37°48' W 122°24'2 2.1
2015-Apr-28 14:33N 37°50' W 122°25'2 2.0
2015-Apr-28 13:30N 37°51' W 122°27'4 4.4
2015-Apr-28 12:33N 37°48' W 122°23'1 0.1
2015-Apr-28 01:25N 37°49' W 122°25'0 0.1
2015-Apr-28 00:34N 37°49' W 122°25'1 1.2
2015-Apr-27 23:32N 37°50' W 122°25'1 1.3
2015-Apr-27 22:33N 37°49' W 122°25'3 2.5
2015-Apr-27 21:33N 37°49' W 122°28'3 2.5
2015-Apr-27 20:32N 37°49' W 122°25'3 2.7
2015-Apr-27 19:33N 37°49' W 122°28'3 2.8
2015-Apr-27 18:33N 37°49' W 122°24'0 0.4
2015-Apr-27 17:30N 37°49' W 122°25'0 0.0
2015-Apr-27 16:14N 37°49' W 122°25'0 0.0
2015-Apr-27 15:32N 37°49' W 122°25'0 0.0
2015-Apr-27 11:17N 37°49' W 122°25'0 0.0
2015-Apr-27 10:29N 37°49' W 122°25'0 0.0
2015-Apr-27 09:05N 37°49' W 122°25'0 0.0
2015-Apr-27 08:29N 37°49' W 122°25'0 0.0
2015-Apr-27 06:26N 37°49' W 122°25'0 0.0
2015-Apr-27 05:17N 37°49' W 122°25'0 0.0
2015-Apr-27 03:08N 37°49' W 122°25'0 0.0
2015-Apr-27 02:29N 37°49' W 122°25'0 0.3
2015-Apr-27 01:34N 37°49' W 122°24'0 0.2
2015-Apr-27 00:29N 37°49' W 122°25'0 0.1
2015-Apr-26 23:33N 37°49' W 122°25'1 1.4
2015-Apr-26 22:29N 37°49' W 122°27'2 1.5
2015-Apr-26 21:27N 37°49' W 122°25'3 3.1
2015-Apr-26 20:33N 37°49' W 122°28'4 3.6
2015-Apr-26 19:33N 37°49' W 122°24'1 0.8
2015-Apr-26 18:33N 37°49' W 122°25'3 3.3
2015-Apr-26 17:33N 37°49' W 122°29'4 0.2
2015-Apr-26 01:33N 37°49' W 122°24'0 0.3
2015-Apr-26 00:33N 37°49' W 122°25'0 0.1
2015-Apr-25 23:34N 37°49' W 122°25'2 2.4
2015-Apr-25 22:34N 37°49' W 122°28'2 2.4
2015-Apr-25 21:33N 37°49' W 122°25'3 2.7
2015-Apr-25 20:33N 37°49' W 122°28'4 3.7
2015-Apr-25 19:33N 37°49' W 122°23'1 1.1
2015-Apr-25 18:33N 37°49' W 122°25'3 2.9
2015-Apr-25 17:33N 37°49' W 122°28'3 2.6
2015-Apr-25 16:24N 37°49' W 122°25'0 0.0
2015-Apr-25 15:09N 37°49' W 122°25'0 0.0
2015-Apr-25 14:30N 37°49' W 122°25'0 0.0
2015-Apr-25 13:30N 37°49' W 122°25'0 0.0
2015-Apr-25 12:12N 37°49' W 122°25'0 0.0
2015-Apr-25 11:30N 37°49' W 122°25'0 0.0
2015-Apr-25 10:24N 37°49' W 122°25'0 0.0
2015-Apr-25 09:33N 37°49' W 122°25'0 0.0
2015-Apr-25 08:24N 37°49' W 122°25'0 0.0
2015-Apr-25 07:18N 37°49' W 122°25'0 0.0
2015-Apr-25 06:06N 37°49' W 122°25'0 0.0
2015-Apr-25 04:24N 37°49' W 122°25'0 0.0
2015-Apr-25 03:03N 37°49' W 122°25'0 0.0
2015-Apr-25 02:33N 37°49' W 122°25'0 0.2
2015-Apr-25 01:34N 37°49' W 122°25'  
Track history (hours):
 
Tides and Currents Weather Stations Pressure Air Temp Water Temp Dewpoint Dewpoint Depression Visibility Wind Speed Wind Dir Waves Ship Positions

Harbor Emperor

Owner: BLUE & GOLD FLEET, SAN FRANCISCO, CA. More information available from US FCC via Universal Licensing System and Coast Guard Vessel Documentation Center.

Last reported at 2015-May-05 00:33 UTC. Time now 2015-May-05 01:10 UTC.
Position N 37°48' W 122°24'.

Length 27 m.

Type: Passenger vessel. MMSI: 366985270.

Date/timePositionNaut miles runAvg speedWind from/ knotsBaromVisibWave heightAir tempDewpointWater temp
2015-May-05 00:33N 37°48' W 122°24'0 0.0
2015-May-04 23:33N 37°48' W 122°24'0 0.0
2015-May-04 22:33N 37°48' W 122°24'0 0.0
2015-May-04 21:33N 37°48' W 122°24'0 0.0
2015-May-04 20:32N 37°48' W 122°24'0 0.0
2015-May-04 19:33N 37°48' W 122°24'0 0.0
2015-May-04 18:33N 37°48' W 122°24'0 0.0
2015-May-04 17:33N 37°48' W 122°24'0 0.0
2015-May-04 16:33N 37°48' W 122°24'0 0.0
2015-May-04 15:33N 37°48' W 122°24'0 0.0
2015-May-04 14:33N 37°48' W 122°24'0 0.0
2015-May-04 13:33N 37°48' W 122°24'1 0.8
2015-May-04 12:29N 37°49' W 122°25'0 0.0
2015-May-04 11:33N 37°49' W 122°25'0 0.0
2015-May-04 10:30N 37°49' W 122°25'0 0.0
2015-May-04 09:33N 37°49' W 122°25'0 0.0
2015-May-04 08:33N 37°49' W 122°25'0 0.0
2015-May-04 07:27N 37°49' W 122°25'0 0.0
2015-May-04 06:33N 37°49' W 122°25'0 0.0
2015-May-04 05:33N 37°49' W 122°25'0 0.0
2015-May-04 04:33N 37°49' W 122°25'0 0.0
2015-May-04 03:27N 37°49' W 122°25'0 0.0
2015-May-04 02:33N 37°49' W 122°25'0 0.0
2015-May-04 01:31N 37°49' W 122°25'0 0.0
2015-May-04 00:33N 37°49' W 122°25'0 0.0
2015-May-03 23:32N 37°49' W 122°25'0 0.0
2015-May-03 22:33N 37°49' W 122°25'0 0.0
2015-May-03 21:33N 37°49' W 122°25'0 0.0
2015-May-03 20:33N 37°49' W 122°25'3 2.6
2015-May-03 19:33N 37°51' W 122°25'3 0.1
2015-May-03 01:33N 37°49' W 122°25'0 0.0
2015-May-03 00:29N 37°49' W 122°25'4 3.5
2015-May-02 23:24N 37°52' W 122°26'2 2.1
2015-May-02 22:33N 37°50' W 122°26'0 0.4
2015-May-02 21:33N 37°50' W 122°26'2 1.8
2015-May-02 20:33N 37°49' W 122°25'4 4.4
2015-May-02 19:34N 37°52' W 122°27'4 4.2
2015-May-02 18:33N 37°49' W 122°25'4 4.2
2015-May-02 17:33N 37°52' W 122°27'4 4.3
2015-May-02 16:33N 37°49' W 122°25'0 0.1
2015-May-02 15:26N 37°49' W 122°25'0 0.0
2015-May-02 14:18N 37°49' W 122°25'0 0.0
2015-May-02 13:30N 37°49' W 122°25'0 0.0
2015-May-02 12:33N 37°49' W 122°25'0 0.0
2015-May-02 11:33N 37°49' W 122°25'0 0.0
2015-May-02 10:15N 37°49' W 122°25'0 0.0
2015-May-02 09:27N 37°49' W 122°25'0 0.0
2015-May-02 08:06N 37°49' W 122°25'0 0.0
2015-May-02 07:33N 37°49' W 122°25'0 0.0
2015-May-02 06:27N 37°49' W 122°25'0 0.0
2015-May-02 05:20N 37°49' W 122°25'0 0.0
2015-May-02 04:32N 37°49' W 122°25'2 2.4
2015-May-02 03:33N 37°50' W 122°27'2 2.0
2015-May-02 02:21N 37°49' W 122°25'3 3.7
2015-May-02 01:33N 37°51' W 122°27'1 1.2
2015-May-02 00:33N 37°51' W 122°29'4 3.9
2015-May-01 23:33N 37°49' W 122°25'4 3.6
2015-May-01 22:33N 37°51' W 122°28'3 3.4
2015-May-01 21:34N 37°49' W 122°25'1 0.6
2015-May-01 20:33N 37°49' W 122°25'3 3.0
2015-May-01 19:33N 37°51' W 122°28'1 0.5
2015-May-01 18:30N 37°51' W 122°28'2 1.5
2015-May-01 17:19N 37°52' W 122°26'4 4.6
2015-May-01 16:28N 37°49' W 122°25'0 0.0
2015-May-01 15:31N 37°49' W 122°25'0 0.0
2015-May-01 14:28N 37°49' W 122°25'0 0.0
2015-May-01 12:26N 37°49' W 122°25'0 0.0
2015-May-01 10:29N 37°49' W 122°25'0 0.0
2015-May-01 09:32N 37°49' W 122°25'0 0.0
2015-May-01 08:17N 37°49' W 122°25'0 0.0
2015-May-01 07:26N 37°49' W 122°25'0 0.0
2015-May-01 06:29N 37°49' W 122°25'0 0.0
2015-May-01 05:26N 37°49' W 122°25'2 1.3
2015-May-01 03:33N 37°50' W 122°27'2 2.4
2015-May-01 02:33N 37°49' W 122°25'3 2.8
2015-May-01 01:33N 37°50' W 122°27'1 1.3
2015-May-01 00:32N 37°51' W 122°29'4 4.2
2015-Apr-30 23:33N 37°49' W 122°25'4 3.6
2015-Apr-30 22:32N 37°51' W 122°28'3 3.2
2015-Apr-30 21:33N 37°49' W 122°25'1 0.6
2015-Apr-30 20:33N 37°49' W 122°25'3 3.1
2015-Apr-30 19:33N 37°51' W 122°28'1 1.0
2015-Apr-30 18:33N 37°51' W 122°29'4 4.2
2015-Apr-30 17:32N 37°49' W 122°25'0 0.0
2015-Apr-30 16:32N 37°49' W 122°25'0 0.0
2015-Apr-30 15:33N 37°49' W 122°25'0 0.0
2015-Apr-30 14:33N 37°49' W 122°25'0 0.0
2015-Apr-30 13:33N 37°49' W 122°25'0 0.0
2015-Apr-30 12:33N 37°49' W 122°25'0 0.0
2015-Apr-30 11:32N 37°49' W 122°25'0 0.0
2015-Apr-30 10:33N 37°49' W 122°25'0 0.0
2015-Apr-30 09:33N 37°49' W 122°25'0 0.0
2015-Apr-30 08:33N 37°49' W 122°25'0 0.0
2015-Apr-30 07:33N 37°49' W 122°25'0 0.0
2015-Apr-30 06:33N 37°49' W 122°25'0 0.0
2015-Apr-30 05:33N 37°49' W 122°25'0 0.0
2015-Apr-30 04:33N 37°49' W 122°25'0 0.0
2015-Apr-30 03:33N 37°49' W 122°25'0 0.0
2015-Apr-30 02:32N 37°49' W 122°25'0 0.0
2015-Apr-30 01:33N 37°49' W 122°25'0 0.1
2015-Apr-30 00:33N 37°49' W 122°25'1 1.0
2015-Apr-29 23:33N 37°50' W 122°25'1 0.8
2015-Apr-29 22:10N 37°49' W 122°25'2 3.6
2015-Apr-29 21:33N 37°49' W 122°27'2 2.3
2015-Apr-29 20:33N 37°49' W 122°25'3 2.6
2015-Apr-29 19:33N 37°49' W 122°28'3 2.8
2015-Apr-29 18:33N 37°49' W 122°24'0 0.5
2015-Apr-29 17:32N 37°49' W 122°25'0 0.0
2015-Apr-29 16:30N 37°49' W 122°25'0 0.0
2015-Apr-29 15:19N 37°49' W 122°25'0 0.0
2015-Apr-29 14:31N 37°49' W 122°25'0 0.0
2015-Apr-29 13:19N 37°49' W 122°25'0 0.0
2015-Apr-29 12:32N 37°49' W 122°25'0 0.0
2015-Apr-29 11:33N 37°49' W 122°25'0 0.0
2015-Apr-29 10:32N 37°49' W 122°25'0 0.0
2015-Apr-29 09:33N 37°49' W 122°25'0 0.0
2015-Apr-29 08:31N 37°49' W 122°25'0 0.0
2015-Apr-29 07:21N 37°49' W 122°25'0 0.0
2015-Apr-29 06:29N 37°49' W 122°25'0 0.0
2015-Apr-29 05:33N 37°49' W 122°25'0 0.0
2015-Apr-29 04:29N 37°49' W 122°25'0 0.0
2015-Apr-29 03:33N 37°49' W 122°25'0 0.0
2015-Apr-29 02:33N 37°49' W 122°25'0 0.0
2015-Apr-29 01:33N 37°49' W 122°25'0 0.1
2015-Apr-29 00:33N 37°49' W 122°25'1 1.1
2015-Apr-28 23:34N 37°50' W 122°25'1 1.2
2015-Apr-28 22:32N 37°49' W 122°25'3 2.7
2015-Apr-28 21:33N 37°49' W 122°28'3 2.6
2015-Apr-28 20:31N 37°49' W 122°25'3 2.7
2015-Apr-28 19:33N 37°49' W 122°28'3 2.6
2015-Apr-28 18:33N 37°49' W 122°25'1 0.6
2015-Apr-28 17:32N 37°49' W 122°25'2 2.2
2015-Apr-28 16:33N 37°50' W 122°26'3 3.3
2015-Apr-28 15:33N 37°48' W 122°24'2 2.1
2015-Apr-28 14:33N 37°50' W 122°25'2 2.0
2015-Apr-28 13:30N 37°51' W 122°27'4 4.4
2015-Apr-28 12:33N 37°48' W 122°23'1 0.1
2015-Apr-28 01:25N 37°49' W 122°25'0 0.1
2015-Apr-28 00:34N 37°49' W 122°25'1 1.2
2015-Apr-27 23:32N 37°50' W 122°25'1 1.3
2015-Apr-27 22:33N 37°49' W 122°25'3 2.5
2015-Apr-27 21:33N 37°49' W 122°28'3 2.5
2015-Apr-27 20:32N 37°49' W 122°25'3 2.7
2015-Apr-27 19:33N 37°49' W 122°28'3 2.8
2015-Apr-27 18:33N 37°49' W 122°24'0 0.4
2015-Apr-27 17:30N 37°49' W 122°25'0 0.0
2015-Apr-27 16:14N 37°49' W 122°25'0 0.0
2015-Apr-27 15:32N 37°49' W 122°25'0 0.0
2015-Apr-27 11:17N 37°49' W 122°25'0 0.0
2015-Apr-27 10:29N 37°49' W 122°25'0 0.0
2015-Apr-27 09:05N 37°49' W 122°25'0 0.0
2015-Apr-27 08:29N 37°49' W 122°25'0 0.0
2015-Apr-27 06:26N 37°49' W 122°25'0 0.0
2015-Apr-27 05:17N 37°49' W 122°25'0 0.0
2015-Apr-27 03:08N 37°49' W 122°25'0 0.0
2015-Apr-27 02:29N 37°49' W 122°25'0 0.3
2015-Apr-27 01:34N 37°49' W 122°24'0 0.2
2015-Apr-27 00:29N 37°49' W 122°25'0 0.1
2015-Apr-26 23:33N 37°49' W 122°25'1 1.4
2015-Apr-26 22:29N 37°49' W 122°27'2 1.5
2015-Apr-26 21:27N 37°49' W 122°25'3 3.1
2015-Apr-26 20:33N 37°49' W 122°28'4 3.6
2015-Apr-26 19:33N 37°49' W 122°24'1 0.8
2015-Apr-26 18:33N 37°49' W 122°25'3 3.3
2015-Apr-26 17:33N 37°49' W 122°29'4 0.2
2015-Apr-26 01:33N 37°49' W 122°24'0 0.3
2015-Apr-26 00:33N 37°49' W 122°25'0 0.1
2015-Apr-25 23:34N 37°49' W 122°25'2 2.4
2015-Apr-25 22:34N 37°49' W 122°28'2 2.4
2015-Apr-25 21:33N 37°49' W 122°25'3 2.7
2015-Apr-25 20:33N 37°49' W 122°28'4 3.7
2015-Apr-25 19:33N 37°49' W 122°23'1 1.1
2015-Apr-25 18:33N 37°49' W 122°25'3 2.9
2015-Apr-25 17:33N 37°49' W 122°28'3 2.6
2015-Apr-25 16:24N 37°49' W 122°25'0 0.0
2015-Apr-25 15:09N 37°49' W 122°25'0 0.0
2015-Apr-25 14:30N 37°49' W 122°25'0 0.0
2015-Apr-25 13:30N 37°49' W 122°25'0 0.0
2015-Apr-25 12:12N 37°49' W 122°25'0 0.0
2015-Apr-25 11:30N 37°49' W 122°25'0 0.0
2015-Apr-25 10:24N 37°49' W 122°25'0 0.0
2015-Apr-25 09:33N 37°49' W 122°25'0 0.0
2015-Apr-25 08:24N 37°49' W 122°25'0 0.0
2015-Apr-25 07:18N 37°49' W 122°25'0 0.0
2015-Apr-25 06:06N 37°49' W 122°25'0 0.0
2015-Apr-25 04:24N 37°49' W 122°25'0 0.0
2015-Apr-25 03:03N 37°49' W 122°25'0 0.0
2015-Apr-25 02:33N 37°49' W 122°25'0 0.2
2015-Apr-25 01:34N 37°49' W 122°25'  

Dump ship's entire track history